Time;durP1;ratioP1;P1;durP2;ratioP2;P2;SDS_P1;SDS_P2;PMS_P1;PMS_P2;Temp;Humidity;BMP_temperature;BMP_pressure;BME280_temperature;BME280_humidity;BME280_pressure;Samples;Min_cycle;Max_cycle;Signal;HPM_P1;HPM_P2
2021/07/17 00:02:00;;;;;;;38.83;12.23;;;15.90;99.90;;;;;;5064274;28;20037;-84
2021/07/17 00:04:29;;;;;;;40.15;11.75;;;15.80;99.90;;;;;;5075853;28;20410;-84
2021/07/17 00:06:56;;;;;;;50.25;12.25;;;15.80;99.90;;;;;;5062324;28;20051;-84
2021/07/17 00:09:22;;;;;;;39.92;11.90;;;15.80;99.90;;;;;;5062974;28;20036;-84
2021/07/17 00:11:48;;;;;;;31.70;10.88;;;15.80;99.90;;;;;;5064544;28;20126;-84
2021/07/17 00:14:15;;;;;;;43.47;12.20;;;15.70;99.90;;;;;;5072879;28;20123;-84
2021/07/17 00:16:45;;;;;;;46.08;12.68;;;15.80;99.90;;;;;;5077079;28;20044;-84
2021/07/17 00:19:11;;;;;;;41.08;12.55;;;15.70;99.90;;;;;;5068136;28;20103;-84
2021/07/17 00:21:37;;;;;;;44.10;13.05;;;15.70;99.90;;;;;;5052110;28;20040;-84
2021/07/17 00:24:03;;;;;;;47.25;13.65;;;15.70;99.90;;;;;;5052921;28;20406;-84
2021/07/17 00:26:29;;;;;;;43.17;12.95;;;15.60;99.90;;;;;;5083415;28;20064;-84
2021/07/17 00:28:55;;;;;;;51.75;14.00;;;15.60;99.90;;;;;;5085936;28;20470;-84
2021/07/17 00:31:21;;;;;;;47.25;13.32;;;15.60;99.90;;;;;;5084839;28;20031;-84
2021/07/17 00:33:47;;;;;;;43.63;12.13;;;15.60;99.90;;;;;;5070523;28;20502;-84
2021/07/17 00:36:12;;;;;;;36.28;11.25;;;15.60;99.90;;;;;;5049482;28;20048;-84
2021/07/17 00:38:38;;;;;;;38.20;12.60;;;15.60;99.90;;;;;;5071657;28;20043;-84
2021/07/17 00:41:04;;;;;;;39.67;11.80;;;15.60;99.90;;;;;;5088546;28;20542;-84
2021/07/17 00:43:30;;;;;;;37.00;12.35;;;15.50;99.90;;;;;;5084936;28;20367;-84
2021/07/17 00:45:58;;;;;;;30.85;10.55;;;15.50;99.90;;;;;;5067808;28;20495;-84
2021/07/17 00:48:24;;;;;;;46.83;11.98;;;15.50;99.90;;;;;;5074995;28;20028;-84
2021/07/17 00:50:50;;;;;;;35.75;12.30;;;15.50;99.90;;;;;;5072953;28;20043;-84
2021/07/17 00:53:16;;;;;;;40.38;11.38;;;15.40;99.90;;;;;;5082795;28;20036;-84
2021/07/17 00:55:48;;;;;;;43.30;12.18;;;15.40;99.90;;;;;;5062694;28;20043;-84
2021/07/17 00:58:17;;;;;;;47.17;12.60;;;15.40;99.90;;;;;;5090482;28;20272;-84
2021/07/17 01:00:42;;;;;;;35.60;11.63;;;15.40;99.90;;;;;;5086527;28;20486;-84
2021/07/17 01:03:09;;;;;;;43.55;12.65;;;15.40;99.90;;;;;;5085016;28;20045;-84
2021/07/17 01:05:36;;;;;;;35.35;11.40;;;15.40;99.90;;;;;;5088569;28;20486;-84
2021/07/17 01:08:02;;;;;;;38.47;11.98;;;15.30;99.90;;;;;;5085469;28;20038;-84
2021/07/17 01:10:29;;;;;;;40.03;11.63;;;15.40;99.90;;;;;;5089140;28;20058;-84
2021/07/17 01:12:55;;;;;;;39.00;12.23;;;15.30;99.90;;;;;;5084184;28;20098;-84
2021/07/17 01:15:21;;;;;;;37.17;12.73;;;15.30;99.90;;;;;;5078333;28;20486;-84
2021/07/17 01:17:49;;;;;;;42.88;11.88;;;15.30;99.90;;;;;;5089363;28;20148;-85
2021/07/17 01:20:19;;;;;;;38.88;11.10;;;15.30;99.90;;;;;;5089566;28;20063;-84
2021/07/17 01:22:45;;;;;;;28.42;10.25;;;15.30;99.90;;;;;;5085380;28;20036;-85
2021/07/17 01:25:15;;;;;;;32.67;10.82;;;15.20;99.90;;;;;;5068626;28;20033;-84
2021/07/17 01:27:41;;;;;;;46.40;12.18;;;15.20;99.90;;;;;;5087263;28;20024;-84
2021/07/17 01:30:20;;;;;;;40.58;10.90;;;15.20;99.90;;;;;;5071405;28;20391;-84
2021/07/17 01:32:46;;;;;;;31.98;11.25;;;15.20;99.90;;;;;;5088933;28;20264;-84
2021/07/17 01:35:12;;;;;;;41.78;11.85;;;15.20;99.90;;;;;;5088663;28;20036;-84
2021/07/17 01:37:39;;;;;;;36.17;11.93;;;15.20;99.90;;;;;;5086948;28;20035;-85
2021/07/17 01:40:06;;;;;;;35.10;11.45;;;15.20;99.90;;;;;;5089843;28;20036;-84
2021/07/17 01:42:35;;;;;;;33.03;11.00;;;15.20;99.90;;;;;;5078615;28;20043;-84
2021/07/17 01:45:02;;;;;;;33.38;11.77;;;15.10;99.90;;;;;;5070192;28;20028;-85
2021/07/17 01:47:28;;;;;;;41.42;12.52;;;15.10;99.90;;;;;;5085209;28;20024;-84
2021/07/17 01:49:54;;;;;;;38.25;11.65;;;15.10;99.90;;;;;;5085294;28;20376;-84
2021/07/17 01:52:20;;;;;;;36.80;10.88;;;15.00;99.90;;;;;;5070354;28;20108;-84
2021/07/17 01:54:46;;;;;;;50.83;12.15;;;15.00;99.90;;;;;;5059863;28;20063;-83
2021/07/17 01:57:11;;;;;;;33.65;11.25;;;15.00;99.90;;;;;;5072534;28;20040;-86
2021/07/17 01:59:39;;;;;;;39.42;10.90;;;15.00;99.90;;;;;;5070672;28;20044;-83
2021/07/17 02:02:06;;;;;;;37.78;10.18;;;15.00;99.90;;;;;;5088521;28;20547;-83
2021/07/17 02:04:32;;;;;;;38.15;10.13;;;15.00;99.90;;;;;;5086578;28;20035;-84
2021/07/17 02:06:58;;;;;;;31.30;11.60;;;15.00;99.90;;;;;;5088160;28;20044;-83
2021/07/17 02:09:24;;;;;;;37.03;11.63;;;15.00;99.90;;;;;;5073115;28;20070;-84
2021/07/17 02:11:50;;;;;;;39.22;11.77;;;15.00;99.90;;;;;;5070972;28;20469;-84
2021/07/17 02:14:16;;;;;;;30.95;9.98;;;15.00;99.90;;;;;;5086278;28;20135;-84
2021/07/17 02:16:42;;;;;;;41.45;10.77;;;15.00;99.90;;;;;;5055406;28;20175;-85
2021/07/17 02:19:20;;;;;;;38.75;12.25;;;15.00;99.90;;;;;;5057440;28;20044;-84
2021/07/17 02:21:53;;;;;;;40.10;10.25;;;15.00;99.90;;;;;;5082724;28;20032;-85
2021/07/17 02:24:19;;;;;;;48.55;11.38;;;15.00;99.90;;;;;;5083538;28;20028;-84
2021/07/17 02:26:46;;;;;;;33.38;9.82;;;15.00;99.90;;;;;;5085503;28;20040;-85
2021/07/17 02:29:13;;;;;;;32.33;9.10;;;15.00;99.90;;;;;;5078760;28;20059;-84
2021/07/17 02:31:41;;;;;;;39.88;10.32;;;15.00;99.90;;;;;;5056476;28;20064;-84
2021/07/17 02:34:11;;;;;;;40.20;10.73;;;15.10;99.90;;;;;;5087026;28;20055;-84
2021/07/17 02:36:37;;;;;;;34.83;9.95;;;15.10;99.90;;;;;;5078213;28;20092;-84
2021/07/17 02:39:06;;;;;;;38.53;10.20;;;15.10;99.90;;;;;;5086170;28;20067;-84
2021/07/17 02:41:32;;;;;;;29.80;9.50;;;15.10;99.90;;;;;;5076884;28;20054;-85
2021/07/17 02:43:58;;;;;;;35.30;8.88;;;15.10;99.90;;;;;;5070524;28;20470;-85
2021/07/17 02:46:25;;;;;;;36.35;8.88;;;15.10;99.90;;;;;;5051300;28;20046;-84
2021/07/17 02:48:51;;;;;;;29.52;9.45;;;15.20;99.90;;;;;;5082191;28;20471;-86
2021/07/17 02:51:17;;;;;;;35.42;9.68;;;15.20;99.90;;;;;;5081118;28;20341;-83
2021/07/17 02:53:43;;;;;;;34.78;8.70;;;15.20;99.90;;;;;;5069118;28;20032;-84
2021/07/17 02:56:09;;;;;;;31.38;9.77;;;15.20;99.90;;;;;;5064110;28;20398;-84
2021/07/17 02:58:35;;;;;;;33.53;9.63;;;15.20;99.90;;;;;;5050015;28;20135;-84
2021/07/17 03:01:00;;;;;;;34.95;9.60;;;15.20;99.90;;;;;;5050037;28;20036;-83
2021/07/17 03:03:26;;;;;;;32.85;8.93;;;15.20;99.90;;;;;;5067401;28;20032;-84
2021/07/17 03:05:52;;;;;;;33.78;9.32;;;15.30;99.90;;;;;;5065293;28;20495;-83
2021/07/17 03:08:24;;;;;;;27.20;8.80;;;15.30;99.90;;;;;;5071935;28;20032;-84
2021/07/17 03:10:51;;;;;;;36.97;8.63;;;15.30;99.90;;;;;;5059423;28;20032;-85
2021/07/17 03:13:18;;;;;;;29.85;8.20;;;15.20;99.90;;;;;;5049990;28;20544;-84
2021/07/17 03:15:46;;;;;;;27.52;8.75;;;15.30;99.90;;;;;;5067226;28;20031;-84
2021/07/17 03:18:12;;;;;;;32.15;8.77;;;15.30;99.90;;;;;;5081437;28;20035;-85
2021/07/17 03:20:38;;;;;;;34.88;8.63;;;15.30;99.90;;;;;;5083020;28;20315;-84
2021/07/17 03:23:05;;;;;;;23.90;7.43;;;15.30;99.90;;;;;;5066488;28;20127;-85
2021/07/17 03:25:32;;;;;;;27.38;7.88;;;15.30;99.90;;;;;;5084982;28;20066;-84
2021/07/17 03:27:58;;;;;;;27.50;8.25;;;15.30;99.90;;;;;;5065267;28;20558;-84
2021/07/17 03:30:24;;;;;;;23.58;8.40;;;15.30;99.90;;;;;;5063486;28;20028;-85
2021/07/17 03:32:50;;;;;;;30.50;8.27;;;15.20;99.90;;;;;;5064934;28;20119;-84
2021/07/17 03:35:16;;;;;;;27.45;7.68;;;15.30;99.90;;;;;;5070522;28;20103;-84
2021/07/17 03:37:42;;;;;;;28.02;7.22;;;15.30;99.90;;;;;;5056430;28;20487;-83
2021/07/17 03:40:09;;;;;;;30.23;7.95;;;15.20;99.90;;;;;;5050705;28;20059;-84
2021/07/17 03:42:35;;;;;;;27.27;7.40;;;15.20;99.90;;;;;;5068377;28;20357;-84
2021/07/17 03:45:01;;;;;;;33.22;8.18;;;15.30;99.90;;;;;;5068446;28;20510;-83
2021/07/17 03:47:27;;;;;;;30.13;7.03;;;15.30;99.90;;;;;;5079292;28;20089;-84
2021/07/17 03:49:53;;;;;;;30.13;8.43;;;15.30;99.90;;;;;;5066406;28;20132;-84
2021/07/17 03:52:19;;;;;;;22.27;7.30;;;15.30;99.90;;;;;;5079085;28;20115;-84
2021/07/17 03:54:45;;;;;;;37.75;8.57;;;15.30;99.90;;;;;;5065975;28;20274;-84
2021/07/17 03:57:11;;;;;;;24.48;7.30;;;15.30;99.90;;;;;;5086352;28;20538;-85
2021/07/17 03:59:37;;;;;;;31.08;8.07;;;15.30;99.90;;;;;;5064480;28;20036;-84
2021/07/17 04:02:04;;;;;;;26.25;7.50;;;15.40;99.90;;;;;;5086712;28;20387;-84
2021/07/17 04:04:30;;;;;;;27.15;7.32;;;15.40;99.90;;;;;;5054984;28;20565;-84
2021/07/17 04:06:59;;;;;;;31.27;7.90;;;15.50;99.90;;;;;;5065052;28;20032;-86
2021/07/17 04:09:25;;;;;;;25.10;7.18;;;15.50;99.90;;;;;;5080062;28;20047;-85
2021/07/17 04:11:51;;;;;;;24.33;7.50;;;15.50;99.90;;;;;;5067003;28;20107;-84
2021/07/17 04:14:17;;;;;;;29.50;7.90;;;15.60;99.90;;;;;;5068903;28;20119;-85
2021/07/17 04:16:43;;;;;;;30.65;7.22;;;15.60;99.90;;;;;;5067795;28;20123;-85
2021/07/17 04:19:10;;;;;;;28.02;7.00;;;15.70;99.90;;;;;;5055642;28;20470;-84
2021/07/17 04:21:35;;;;;;;25.83;6.55;;;15.70;99.90;;;;;;5080953;28;20066;-84
2021/07/17 04:24:01;;;;;;;27.70;7.47;;;15.70;99.90;;;;;;5082544;28;20493;-84
2021/07/17 04:26:27;;;;;;;32.33;7.47;;;15.80;99.90;;;;;;5067462;28;20040;-84
2021/07/17 04:28:53;;;;;;;34.85;7.30;;;15.80;99.90;;;;;;5044193;28;20375;-85
2021/07/17 04:31:19;;;;;;;25.98;7.03;;;15.90;99.90;;;;;;5071115;28;20040;-85
2021/07/17 04:33:44;;;;;;;30.55;8.02;;;15.90;99.90;;;;;;5083233;28;20617;-86
2021/07/17 04:36:10;;;;;;;29.17;7.43;;;16.00;99.90;;;;;;5053368;28;20032;-84
2021/07/17 04:38:37;;;;;;;28.80;7.00;;;16.00;99.90;;;;;;5067682;28;20526;-84
2021/07/17 04:41:03;;;;;;;31.30;7.38;;;16.10;99.90;;;;;;5072951;28;20540;-85
2021/07/17 04:43:29;;;;;;;26.48;6.90;;;16.10;99.90;;;;;;5067300;28;20036;-84
2021/07/17 04:45:54;;;;;;;27.10;7.20;;;16.20;99.90;;;;;;5081959;28;20082;-84
2021/07/17 04:48:20;;;;;;;28.42;6.57;;;16.20;99.90;;;;;;5070455;28;20032;-84
2021/07/17 04:50:46;;;;;;;23.13;6.60;;;16.30;99.90;;;;;;5088545;28;20024;-84
2021/07/17 04:53:12;;;;;;;28.45;6.50;;;16.30;99.90;;;;;;5069770;28;20058;-84
2021/07/17 04:55:38;;;;;;;26.75;6.45;;;16.40;99.90;;;;;;5088193;28;20061;-85
2021/07/17 04:58:05;;;;;;;31.38;6.53;;;16.50;99.90;;;;;;5051600;28;20040;-84
2021/07/17 05:00:31;;;;;;;37.70;8.00;;;16.50;99.90;;;;;;5069341;28;20174;-85
2021/07/17 05:02:57;;;;;;;25.98;6.93;;;16.50;99.90;;;;;;5091073;28;20515;-83
2021/07/17 05:05:24;;;;;;;24.15;6.95;;;16.60;99.90;;;;;;5052865;28;20036;-84
2021/07/17 05:07:51;;;;;;;25.75;6.85;;;16.60;99.90;;;;;;5080991;28;20044;-85
2021/07/17 05:10:20;;;;;;;22.65;6.50;;;16.60;99.90;;;;;;5084565;28;20032;-83
2021/07/17 05:12:47;;;;;;;18.88;5.60;;;16.70;99.90;;;;;;5085179;28;20032;-84
2021/07/17 05:15:15;;;;;;;22.63;5.72;;;16.80;99.90;;;;;;5103337;28;20032;-83
2021/07/17 05:17:41;;;;;;;24.50;6.05;;;16.80;99.90;;;;;;5083489;28;20044;-84
2021/07/17 05:20:08;;;;;;;23.02;6.55;;;16.90;99.90;;;;;;5078098;28;20044;-84
2021/07/17 05:22:35;;;;;;;23.17;5.82;;;16.90;99.90;;;;;;5066949;28;20036;-84
2021/07/17 05:25:02;;;;;;;34.03;6.68;;;17.00;99.90;;;;;;5081759;28;20340;-84
2021/07/17 05:27:28;;;;;;;23.08;7.05;;;17.00;99.90;;;;;;5064477;28;20032;-83
2021/07/17 05:29:54;;;;;;;22.00;6.05;;;17.10;99.90;;;;;;5063313;28;20036;-83
2021/07/17 05:32:20;;;;;;;27.77;6.20;;;17.10;99.90;;;;;;5073566;28;20487;-83
2021/07/17 05:34:45;;;;;;;19.98;6.03;;;17.20;99.90;;;;;;5087583;28;20116;-84
2021/07/17 05:37:11;;;;;;;22.70;6.30;;;17.20;99.90;;;;;;5045486;28;20082;-82
2021/07/17 05:39:38;;;;;;;21.30;5.38;;;17.30;99.90;;;;;;5073113;28;20043;-84
2021/07/17 05:42:05;;;;;;;19.27;5.13;;;17.30;99.90;;;;;;5091163;28;20035;-83
2021/07/17 05:44:31;;;;;;;27.42;5.55;;;17.40;99.90;;;;;;5091319;28;20080;-85
2021/07/17 05:46:57;;;;;;;21.02;5.63;;;17.50;99.90;;;;;;5074986;28;20082;-85
2021/07/17 05:49:23;;;;;;;26.52;5.97;;;17.50;99.90;;;;;;5086867;28;20073;-83
2021/07/17 05:51:49;;;;;;;19.75;4.82;;;17.50;99.90;;;;;;5074662;28;20033;-83
2021/07/17 05:54:15;;;;;;;23.35;5.45;;;17.60;99.90;;;;;;5085397;28;20024;-83
2021/07/17 05:56:41;;;;;;;26.48;5.70;;;17.60;99.90;;;;;;5091356;28;20058;-82
2021/07/17 05:59:07;;;;;;;22.17;5.43;;;17.70;99.90;;;;;;5088058;28;20478;-83
2021/07/17 06:01:33;;;;;;;15.25;4.88;;;17.70;99.90;;;;;;5066184;28;20043;-84
2021/07/17 06:04:00;;;;;;;23.27;6.03;;;17.80;99.90;;;;;;5046466;28;20047;-84
2021/07/17 06:06:25;;;;;;;16.85;5.07;;;17.80;99.90;;;;;;5068895;28;20040;-82
2021/07/17 06:08:51;;;;;;;17.13;6.00;;;17.90;99.90;;;;;;5066915;28;20039;-85
2021/07/17 06:11:17;;;;;;;16.10;4.43;;;18.00;99.90;;;;;;5067497;28;20063;-84
2021/07/17 06:13:43;;;;;;;20.77;4.97;;;18.00;99.90;;;;;;5072041;28;20255;-84
2021/07/17 06:16:09;;;;;;;16.02;4.88;;;18.10;99.90;;;;;;5081203;28;20040;-84
2021/07/17 06:18:35;;;;;;;16.73;4.30;;;18.10;99.90;;;;;;5071464;28;20401;-83
2021/07/17 06:21:01;;;;;;;16.00;4.18;;;18.20;99.90;;;;;;5088016;28;20083;-85
2021/07/17 06:23:26;;;;;;;14.40;4.25;;;18.20;99.90;;;;;;5053114;28;20418;-84
2021/07/17 06:25:52;;;;;;;19.13;4.53;;;18.30;99.90;;;;;;5071344;28;20032;-83
2021/07/17 06:28:18;;;;;;;13.18;4.78;;;18.30;99.90;;;;;;5092142;28;20028;-86
2021/07/17 06:30:44;;;;;;;17.73;4.80;;;18.30;99.90;;;;;;5109617;28;20032;-83
2021/07/17 06:33:10;;;;;;;16.70;4.90;;;18.40;99.90;;;;;;5059107;28;20040;-84
2021/07/17 06:35:36;;;;;;;18.23;4.60;;;18.50;99.90;;;;;;5059808;28;20473;-82
2021/07/17 06:38:02;;;;;;;17.92;4.22;;;18.60;99.90;;;;;;5085882;28;20032;-86
2021/07/17 06:40:28;;;;;;;25.08;4.70;;;18.60;99.90;;;;;;5069448;28;20390;-83
2021/07/17 06:42:54;;;;;;;20.73;4.78;;;18.60;99.80;;;;;;5063593;28;20030;-84
2021/07/17 06:45:20;;;;;;;13.70;4.10;;;18.70;99.70;;;;;;5083643;28;20020;-83
2021/07/17 06:47:47;;;;;;;21.45;4.57;;;18.80;99.60;;;;;;5068016;28;20028;-85
2021/07/17 06:50:14;;;;;;;19.55;4.55;;;18.90;99.80;;;;;;5065857;28;20024;-85
2021/07/17 06:52:41;;;;;;;24.63;5.35;;;19.00;99.40;;;;;;5084946;28;20114;-85
2021/07/17 06:55:08;;;;;;;15.25;4.53;;;19.10;99.20;;;;;;5088426;28;20459;-83
2021/07/17 06:57:39;;;;;;;18.08;4.40;;;19.20;98.90;;;;;;5071751;28;20065;-84
2021/07/17 07:00:07;;;;;;;18.95;4.05;;;19.20;98.70;;;;;;5059617;28;20032;-85
2021/07/17 07:02:33;;;;;;;17.95;4.00;;;19.20;98.60;;;;;;5080953;28;20032;-85
2021/07/17 07:04:59;;;;;;;23.00;4.10;;;19.40;98.60;;;;;;5065292;28;20477;-85
2021/07/17 07:07:25;;;;;;;15.20;4.20;;;19.40;98.40;;;;;;5081526;28;20040;-83
2021/07/17 07:09:51;;;;;;;22.17;4.93;;;19.50;98.10;;;;;;5069693;28;20303;-84
2021/07/17 07:12:17;;;;;;;15.38;3.90;;;19.60;98.00;;;;;;5025862;28;20112;-86
2021/07/17 07:14:43;;;;;;;14.73;3.67;;;19.70;97.80;;;;;;5042644;28;20477;-86
2021/07/17 07:17:10;;;;;;;18.73;3.90;;;19.80;97.50;;;;;;5027620;28;20118;-84
2021/07/17 07:19:36;;;;;;;14.68;4.13;;;19.70;97.20;;;;;;5041057;28;20033;-87
2021/07/17 07:22:03;;;;;;;13.52;3.50;;;19.80;97.30;;;;;;5063208;28;20438;-84
2021/07/17 07:24:29;;;;;;;19.48;3.83;;;19.90;97.20;;;;;;5051928;28;20029;-86
2021/07/17 07:26:56;;;;;;;18.98;3.78;;;20.00;96.90;;;;;;5059831;28;20071;-85
2021/07/17 07:29:23;;;;;;;15.43;4.03;;;20.00;96.70;;;;;;5041012;28;20036;-84
2021/07/17 07:31:50;;;;;;;14.20;3.33;;;20.10;96.70;;;;;;5045731;28;20049;-86
2021/07/17 07:34:16;;;;;;;14.48;3.58;;;20.10;96.60;;;;;;5046724;28;20029;-84
2021/07/17 07:36:42;;;;;;;17.70;3.80;;;20.20;96.50;;;;;;5044048;28;20044;-85
2021/07/17 07:39:08;;;;;;;11.13;3.22;;;20.20;96.30;;;;;;5018793;28;20033;-88
2021/07/17 07:41:40;;;;;;;14.40;3.50;;;20.30;95.90;;;;;;5051840;28;20033;-85
2021/07/17 07:44:06;;;;;;;16.20;3.43;;;20.30;95.70;;;;;;5047137;28;20037;-86
2021/07/17 07:46:34;;;;;;;14.52;3.53;;;20.30;95.40;;;;;;5049967;28;20048;-84
2021/07/17 07:49:01;;;;;;;16.23;3.55;;;20.30;95.50;;;;;;5051888;28;20029;-85
2021/07/17 07:51:27;;;;;;;12.48;3.50;;;20.40;95.60;;;;;;5052768;28;20025;-85
2021/07/17 07:53:53;;;;;;;13.73;3.38;;;20.40;95.50;;;;;;5051793;28;20131;-84
2021/07/17 07:56:19;;;;;;;13.95;3.35;;;20.50;95.20;;;;;;5045674;28;20092;-84
2021/07/17 07:58:45;;;;;;;14.45;3.00;;;20.60;95.00;;;;;;5044426;28;20036;-86
2021/07/17 08:01:10;;;;;;;10.93;3.15;;;20.60;94.80;;;;;;5050270;28;20107;-84
2021/07/17 08:03:37;;;;;;;11.52;3.00;;;20.70;94.70;;;;;;5043200;28;20061;-83
2021/07/17 08:06:03;;;;;;;9.70;2.88;;;20.70;94.50;;;;;;5066839;28;20041;-85
2021/07/17 08:08:28;;;;;;;11.52;3.45;;;20.80;94.50;;;;;;5035354;28;20041;-85
2021/07/17 08:10:54;;;;;;;11.45;3.13;;;20.80;94.50;;;;;;5035115;28;20045;-86
2021/07/17 08:13:20;;;;;;;8.95;2.72;;;20.90;94.10;;;;;;5031876;28;20540;-85
2021/07/17 08:15:47;;;;;;;12.63;2.75;;;20.90;93.50;;;;;;5033319;28;20350;-84
2021/07/17 08:18:13;;;;;;;13.18;3.08;;;20.90;93.50;;;;;;5043009;28;20044;-86
2021/07/17 08:20:40;;;;;;;12.85;2.70;;;21.00;93.40;;;;;;5039249;28;20467;-84
2021/07/17 08:23:06;;;;;;;8.05;2.80;;;20.90;92.80;;;;;;5053067;28;20488;-85
2021/07/17 08:25:32;;;;;;;10.52;2.95;;;21.00;93.00;;;;;;5051386;28;20058;-84
2021/07/17 08:27:58;;;;;;;9.98;2.50;;;21.00;93.00;;;;;;5035054;28;20253;-85
2021/07/17 08:30:24;;;;;;;11.43;2.13;;;21.00;93.30;;;;;;5033143;28;20372;-85
2021/07/17 08:32:54;;;;;;;12.07;2.65;;;21.10;92.90;;;;;;5069135;28;20025;-85
2021/07/17 08:35:21;;;;;;;9.10;2.55;;;21.10;92.60;;;;;;5051256;28;20056;-84
2021/07/17 08:37:47;;;;;;;9.40;2.00;;;21.20;92.50;;;;;;5068587;28;20041;-84
2021/07/17 08:40:13;;;;;;;10.00;2.72;;;21.20;92.00;;;;;;5051166;28;20106;-85
2021/07/17 08:42:47;;;;;;;14.27;2.85;;;21.10;91.80;;;;;;5023527;28;20057;-84
2021/07/17 08:45:14;;;;;;;12.85;2.53;;;21.20;92.00;;;;;;5045718;28;20103;-85
2021/07/17 08:47:42;;;;;;;9.75;2.45;;;21.10;91.90;;;;;;5045718;28;20033;-84
2021/07/17 08:50:11;;;;;;;4.38;2.15;;;21.30;92.20;;;;;;5066336;28;20391;-84
2021/07/17 08:52:37;;;;;;;7.65;2.33;;;21.30;91.80;;;;;;5063155;28;20041;-85
2021/07/17 08:55:05;;;;;;;6.82;2.35;;;21.30;91.80;;;;;;5066323;28;20032;-84
2021/07/17 08:57:32;;;;;;;5.07;1.77;;;21.30;91.50;;;;;;5047028;28;20508;-84
2021/07/17 09:00:00;;;;;;;5.80;1.75;;;21.40;90.90;;;;;;5042813;28;20037;-85
2021/07/17 09:02:26;;;;;;;8.23;2.05;;;21.30;90.60;;;;;;5029349;28;20037;-85
2021/07/17 09:04:52;;;;;;;4.28;2.00;;;21.30;90.70;;;;;;5050956;28;20037;-85
2021/07/17 09:07:18;;;;;;;8.20;1.73;;;21.40;90.90;;;;;;5049024;28;20120;-85
2021/07/17 09:09:44;;;;;;;7.80;1.90;;;21.40;90.60;;;;;;5030554;28;20119;-87
2021/07/17 09:12:24;;;;;;;4.32;2.03;;;21.40;90.30;;;;;;5066291;28;20037;-84
2021/07/17 09:14:51;;;;;;;8.40;2.03;;;21.40;90.30;;;;;;5046661;28;20036;-83
2021/07/17 09:17:28;;;;;;;6.70;2.05;;;21.40;90.30;;;;;;5033883;28;20041;-85
2021/07/17 09:20:00;;;;;;;7.68;1.92;;;21.50;90.70;;;;;;5052098;28;20228;-84
2021/07/17 09:22:37;;;;;;;7.03;2.13;;;21.50;90.70;;;;;;5047031;28;20116;-85
2021/07/17 09:25:15;;;;;;;6.90;2.10;;;21.50;90.80;;;;;;5045995;28;20032;-85
2021/07/17 09:27:41;;;;;;;8.10;1.83;;;21.50;90.70;;;;;;5054312;28;20056;-85
2021/07/17 09:30:26;;;;;;;8.73;2.05;;;21.50;90.70;;;;;;5048897;28;20502;-86
2021/07/17 09:33:03;;;;;;;10.57;2.08;;;21.60;89.30;;;;;;5061852;28;20036;-84
2021/07/17 09:35:30;;;;;;;7.47;2.10;;;21.60;90.10;;;;;;5049772;28;20041;-84
2021/07/17 09:38:00;;;;;;;7.50;1.88;;;21.70;90.30;;;;;;5050025;28;20071;-83
2021/07/17 09:40:26;;;;;;;4.72;1.95;;;21.70;90.30;;;;;;5048217;28;20029;-84
2021/07/17 09:42:52;;;;;;;4.05;1.73;;;21.70;90.80;;;;;;5048450;28;20059;-84
2021/07/17 09:45:54;;;;;;;7.05;1.92;;;21.70;90.80;;;;;;5045145;28;20496;-84
2021/07/17 09:48:31;;;;;;;10.77;1.70;;;21.80;91.00;;;;;;5001377;28;20042;-85
2021/07/17 09:50:58;;;;;;;8.63;2.00;;;21.80;90.70;;;;;;5048206;28;20079;-85
2021/07/17 09:53:37;;;;;;;5.25;1.40;;;21.80;90.10;;;;;;5058397;28;20463;-82
2021/07/17 09:56:07;;;;;;;7.80;2.00;;;21.80;89.00;;;;;;5044094;28;20040;-84
2021/07/17 09:58:33;;;;;;;5.20;1.42;;;21.80;88.10;;;;;;5046289;28;20119;-85
2021/07/17 10:01:13;;;;;;;5.35;1.55;;;21.80;88.40;;;;;;5042546;28;20041;-84
2021/07/17 10:03:42;;;;;;;6.70;1.65;;;21.80;89.90;;;;;;5045282;28;20037;-83
2021/07/17 10:06:09;;;;;;;6.88;1.95;;;21.80;89.40;;;;;;5041056;28;20110;-84
2021/07/17 10:08:35;;;;;;;7.45;1.88;;;21.90;89.50;;;;;;5040251;28;20041;-84
2021/07/17 10:11:11;;;;;;;5.72;1.45;;;21.90;88.80;;;;;;5046090;28;20399;-81
2021/07/17 10:13:38;;;;;;;5.07;1.58;;;22.00;87.80;;;;;;5044892;28;20122;-82
2021/07/17 10:16:27;;;;;;;3.83;1.60;;;21.90;87.70;;;;;;5041717;28;20419;-82
2021/07/17 10:18:56;;;;;;;6.00;1.58;;;22.00;88.50;;;;;;5041619;28;20179;-82
2021/07/17 10:21:23;;;;;;;7.80;1.67;;;22.00;88.20;;;;;;5048004;28;20040;-83
2021/07/17 10:23:49;;;;;;;6.78;1.60;;;22.00;87.20;;;;;;5051472;28;20029;-83
2021/07/17 10:26:15;;;;;;;7.88;2.08;;;22.00;86.20;;;;;;5063513;28;20663;-82
2021/07/17 10:28:41;;;;;;;7.45;1.90;;;22.00;86.30;;;;;;5043898;28;20108;-82
2021/07/17 10:31:09;;;;;;;7.38;1.80;;;22.10;87.30;;;;;;5041782;28;20120;-85
2021/07/17 10:33:36;;;;;;;6.80;1.77;;;22.10;87.00;;;;;;5026168;28;20049;-83
2021/07/17 10:36:15;;;;;;;6.78;2.38;;;22.10;88.10;;;;;;5046824;28;20045;-83
2021/07/17 10:38:44;;;;;;;6.38;1.58;;;22.10;87.90;;;;;;5042714;28;20155;-83
2021/07/17 10:41:16;;;;;;;7.18;1.88;;;22.10;86.90;;;;;;5042028;28;20032;-83
2021/07/17 10:43:48;;;;;;;8.60;2.13;;;22.10;86.90;;;;;;5029444;28;20345;-83
2021/07/17 10:46:37;;;;;;;6.18;2.05;;;22.10;87.30;;;;;;5040596;28;20029;-84
2021/07/17 10:49:11;;;;;;;7.80;2.17;;;22.20;88.10;;;;;;5039374;28;20132;-85
2021/07/17 10:51:40;;;;;;;4.55;1.60;;;22.20;88.20;;;;;;5047030;28;20484;-85
2021/07/17 10:54:09;;;;;;;8.35;2.60;;;22.20;86.20;;;;;;5042286;28;20040;-83
2021/07/17 10:56:41;;;;;;;6.18;1.77;;;22.20;85.80;;;;;;5043828;28;20044;-82
2021/07/17 10:59:11;;;;;;;7.18;2.33;;;22.20;86.70;;;;;;5060757;28;20514;-85
2021/07/17 11:02:02;;;;;;;7.00;2.17;;;22.20;87.50;;;;;;5062609;28;20048;-85
2021/07/17 11:04:49;;;;;;;6.68;1.88;;;22.20;87.20;;;;;;5053639;28;20313;-85
2021/07/17 11:07:18;;;;;;;6.20;2.13;;;22.20;87.30;;;;;;5039191;28;20483;-84
2021/07/17 11:09:57;;;;;;;7.47;1.73;;;22.20;88.00;;;;;;5055376;28;20565;-85
2021/07/17 11:12:26;;;;;;;8.13;1.90;;;22.30;86.50;;;;;;5037831;28;20029;-85
2021/07/17 11:15:05;;;;;;;6.07;1.60;;;22.30;86.60;;;;;;5027785;28;20037;-84
2021/07/17 11:17:40;;;;;;;5.35;1.50;;;22.30;84.50;;;;;;5063520;28;20048;-84
2021/07/17 11:20:35;;;;;;;10.07;2.25;;;22.30;85.70;;;;;;5037493;28;20040;-86
2021/07/17 11:23:05;;;;;;;6.20;1.75;;;22.40;83.30;;;;;;5053480;28;20049;-84
2021/07/17 11:25:33;;;;;;;5.13;2.22;;;22.40;83.70;;;;;;5050509;28;20571;-85
2021/07/17 11:28:03;;;;;;;6.38;1.60;;;22.50;84.20;;;;;;5040578;28;20025;-83
2021/07/17 11:30:36;;;;;;;8.32;1.60;;;22.40;83.60;;;;;;5040812;28;20067;-82
2021/07/17 11:33:04;;;;;;;6.13;1.60;;;22.40;81.80;;;;;;5041306;28;20104;-83
2021/07/17 11:35:39;;;;;;;4.53;1.50;;;22.40;80.20;;;;;;5039469;28;20408;-83
2021/07/17 11:38:07;;;;;;;4.63;1.40;;;22.40;79.70;;;;;;5047253;28;20315;-85
2021/07/17 11:40:34;;;;;;;5.13;1.75;;;22.50;80.70;;;;;;5062680;28;20040;-82
2021/07/17 11:43:01;;;;;;;5.72;1.40;;;22.50;81.30;;;;;;5057061;28;20036;-84
2021/07/17 11:45:27;;;;;;;4.40;1.40;;;22.50;81.30;;;;;;5022935;28;20052;-83
2021/07/17 11:47:53;;;;;;;5.97;1.83;;;22.60;80.30;;;;;;5054885;28;20100;-85
2021/07/17 11:50:23;;;;;;;5.13;1.60;;;22.60;79.30;;;;;;5057048;28;20029;-85
2021/07/17 11:52:49;;;;;;;4.60;1.48;;;22.60;78.90;;;;;;5062348;28;20052;-84
2021/07/17 11:55:16;;;;;;;3.83;1.65;;;22.70;78.20;;;;;;5047634;28;20029;-84
2021/07/17 11:57:44;;;;;;;4.13;1.50;;;22.70;78.10;;;;;;5044950;28;20100;-84
2021/07/17 12:00:15;;;;;;;4.57;1.30;;;22.80;78.90;;;;;;5049612;28;20045;-82
2021/07/17 12:02:42;;;;;;;4.15;1.30;;;22.80;78.20;;;;;;5046006;28;20037;-82
2021/07/17 12:05:10;;;;;;;3.40;1.27;;;22.80;78.70;;;;;;5025416;28;20041;-82
2021/07/17 12:07:38;;;;;;;4.95;1.45;;;22.80;79.20;;;;;;5042175;28;20041;-86
2021/07/17 12:10:07;;;;;;;3.15;1.25;;;22.90;78.20;;;;;;5044081;28;20664;-83
2021/07/17 12:12:44;;;;;;;3.60;1.17;;;22.90;77.50;;;;;;5058983;28;20121;-86
2021/07/17 12:15:17;;;;;;;3.97;2.10;;;22.90;78.40;;;;;;5030027;28;20041;-84
2021/07/17 12:17:48;;;;;;;3.97;1.20;;;23.00;78.60;;;;;;5046764;28;20084;-84
2021/07/17 12:20:15;;;;;;;8.43;1.43;;;23.00;77.50;;;;;;5043124;28;20032;-84
2021/07/17 12:22:47;;;;;;;3.53;1.17;;;23.00;76.20;;;;;;5064162;28;20085;-83
2021/07/17 12:25:17;;;;;;;4.43;1.38;;;23.00;76.50;;;;;;5066333;28;20033;-85
2021/07/17 12:27:53;;;;;;;4.88;1.45;;;23.00;77.60;;;;;;5025296;28;20052;-84
2021/07/17 12:30:20;;;;;;;3.50;1.38;;;23.00;78.20;;;;;;5046826;28;20049;-86
2021/07/17 12:32:46;;;;;;;3.95;1.48;;;23.00;79.00;;;;;;5035945;28;20119;-84
2021/07/17 12:35:23;;;;;;;4.32;1.20;;;23.10;78.70;;;;;;5044660;28;20558;-85
2021/07/17 12:37:49;;;;;;;1.88;1.08;;;23.10;78.20;;;;;;5049168;28;20120;-84
2021/07/17 12:40:15;;;;;;;5.40;1.33;;;23.10;77.90;;;;;;5047918;28;20040;-87
2021/07/17 12:42:47;;;;;;;4.72;1.38;;;23.10;77.80;;;;;;5046513;28;20261;-85